Time,TemperatureF,DewpointF,PressureIn,WindDirection,WindDirectionDegrees,WindSpeedMPH,WindSpeedGustMPH,Humidity,HourlyPrecipIn,Conditions,Clouds,dailyrainin,SolarRadiationWatts/m^2,SoftwareType,DateUTC
2013-06-22 00:00:00,69.0,65.9,29.91,SSE,161,0.0,2.0,90,0.00,,---,1.22,0.00,VWS V14.01,2013-06-22 05:00:00,
2013-06-22 00:01:00,69.0,65.9,29.92,SSE,161,1.0,1.0,90,0.00,,---,0.00,0.00,VWS V14.01,2013-06-22 05:01:00,
2013-06-22 00:06:00,68.8,65.8,29.92,SSE,161,0.0,1.0,90,0.00,,---,0.00,0.00,VWS V14.01,2013-06-22 05:06:00,
2013-06-22 00:11:00,68.6,65.9,29.92,SSE,161,0.0,1.0,91,0.00,,---,0.00,0.00,VWS V14.01,2013-06-22 05:11:00,
2013-06-22 00:16:00,68.5,65.8,29.93,SSE,161,0.0,1.0,91,0.00,,---,0.00,0.00,VWS V14.01,2013-06-22 05:16:00,
2013-06-22 00:21:00,68.5,65.8,29.93,SSE,161,0.0,1.0,91,0.00,,---,0.00,0.00,VWS V14.01,2013-06-22 05:21:00,
2013-06-22 00:26:00,68.5,66.1,29.92,SSE,161,0.0,1.0,92,0.00,,---,0.00,0.00,VWS V14.01,2013-06-22 05:26:00,
2013-06-22 00:31:00,68.5,66.1,29.92,SSE,161,0.0,1.0,92,0.00,,---,0.00,0.00,VWS V14.01,2013-06-22 05:31:00,
2013-06-22 00:36:00,68.6,66.2,29.92,SSE,161,1.0,1.0,92,0.00,,---,0.00,0.00,VWS V14.01,2013-06-22 05:36:00,
2013-06-22 00:41:00,68.5,66.1,29.90,SSE,161,1.0,1.0,92,0.00,,---,0.00,0.00,VWS V14.01,2013-06-22 05:41:00,
2013-06-22 00:46:00,68.4,66.0,29.89,SSE,161,0.0,1.0,92,0.00,,---,0.00,0.00,VWS V14.01,2013-06-22 05:46:00,
2013-06-22 00:51:00,68.3,65.9,29.89,SSE,161,0.0,1.0,92,0.00,,---,0.00,0.00,VWS V14.01,2013-06-22 05:51:00,
2013-06-22 00:56:00,68.2,66.1,29.88,SSE,157,1.0,2.0,93,0.00,,---,0.00,0.00,VWS V14.01,2013-06-22 05:56:00,
2013-06-22 01:00:00,68.2,66.1,29.89,SSE,157,1.0,3.0,93,0.00,,---,0.00,0.00,VWS V14.01,2013-06-22 06:00:00,
2013-06-22 01:01:00,68.2,66.1,29.88,ESE,121,2.0,3.0,93,0.00,,---,0.00,0.00,VWS V14.01,2013-06-22 06:01:00,
2013-06-22 01:06:00,68.3,66.2,29.87,East,101,0.0,3.0,93,0.00,,---,0.00,0.00,VWS V14.01,2013-06-22 06:06:00,
2013-06-22 01:11:00,68.3,66.2,29.87,East,101,0.0,3.0,93,0.00,,---,0.00,0.00,VWS V14.01,2013-06-22 06:11:00,
2013-06-22 01:16:00,68.3,66.2,29.88,East,101,0.0,3.0,93,0.00,,---,0.00,0.00,VWS V14.01,2013-06-22 06:16:00,
2013-06-22 01:21:00,68.4,66.3,29.87,East,101,0.0,3.0,93,0.00,,---,0.00,0.00,VWS V14.01,2013-06-22 06:21:00,
2013-06-22 01:26:00,68.3,66.2,29.87,East,101,0.0,3.0,93,0.00,,---,0.00,0.00,VWS V14.01,2013-06-22 06:26:00,
2013-06-22 01:31:00,68.3,66.2,29.88,East,101,1.0,3.0,93,0.00,,---,0.00,0.00,VWS V14.01,2013-06-22 06:31:00,
2013-06-22 01:36:00,68.1,66.3,29.89,SSW,194,0.0,3.0,94,0.00,,---,0.00,0.00,VWS V14.01,2013-06-22 06:36:00,
2013-06-22 01:41:00,68.0,66.2,29.89,SSW,194,2.0,3.0,94,0.00,,---,0.00,0.00,VWS V14.01,2013-06-22 06:41:00,
2013-06-22 01:46:00,68.0,66.2,29.89,SSW,194,0.0,3.0,94,0.00,,---,0.00,0.00,VWS V14.01,2013-06-22 06:46:00,
2013-06-22 01:51:00,67.9,66.1,29.90,SSW,194,2.0,3.0,94,0.00,,---,0.00,0.00,VWS V14.01,2013-06-22 06:51:00,
2013-06-22 01:56:00,67.9,66.1,29.88,SSW,194,0.0,3.0,94,0.00,,---,0.00,0.00,VWS V14.01,2013-06-22 06:56:00,
2013-06-22 02:00:00,67.9,66.1,29.88,SSW,194,0.0,3.0,94,0.00,,---,0.00,0.00,VWS V14.01,2013-06-22 07:00:00,
2013-06-22 02:01:00,67.9,66.1,29.88,SSW,194,0.0,0.0,94,0.00,,---,0.00,0.00,VWS V14.01,2013-06-22 07:01:00,
2013-06-22 02:06:00,67.9,66.1,29.88,SSW,194,0.0,1.0,94,0.00,,---,0.00,0.00,VWS V14.01,2013-06-22 07:06:00,
2013-06-22 02:11:00,67.9,66.1,29.87,SSW,194,0.0,1.0,94,0.00,,---,0.00,0.00,VWS V14.01,2013-06-22 07:11:00,
2013-06-22 02:16:00,67.9,66.1,29.88,SSW,194,0.0,1.0,94,0.00,,---,0.00,0.00,VWS V14.01,2013-06-22 07:16:00,
2013-06-22 02:21:00,67.9,66.1,29.88,SSW,194,1.0,2.0,94,0.00,,---,0.00,0.00,VWS V14.01,2013-06-22 07:21:00,
2013-06-22 02:26:00,67.9,66.1,29.87,SSW,194,0.0,2.0,94,0.00,,---,0.00,0.00,VWS V14.01,2013-06-22 07:26:00,
2013-06-22 02:31:00,67.8,66.0,29.87,SSW,194,0.0,2.0,94,0.00,,---,0.00,0.00,VWS V14.01,2013-06-22 07:31:00,
2013-06-22 02:36:00,67.9,66.1,29.87,SSW,194,0.0,2.0,94,0.00,,---,0.00,0.00,VWS V14.01,2013-06-22 07:36:00,
2013-06-22 02:41:00,67.9,66.1,29.88,SSW,194,0.0,2.0,94,0.00,,---,0.00,0.00,VWS V14.01,2013-06-22 07:41:00,
2013-06-22 02:46:00,67.9,66.1,29.89,SSW,194,0.0,2.0,94,0.00,,---,0.00,0.00,VWS V14.01,2013-06-22 07:46:00,
2013-06-22 02:51:00,68.0,66.2,29.89,SSW,194,1.0,2.0,94,0.00,,---,0.00,0.00,VWS V14.01,2013-06-22 07:51:00,
2013-06-22 02:56:00,68.1,66.3,29.88,SE,139,0.0,4.0,94,0.00,,---,0.00,0.00,VWS V14.01,2013-06-22 07:56:00,
2013-06-22 03:00:00,68.3,66.8,29.88,South,178,3.0,4.0,95,0.00,,---,0.00,0.00,VWS V14.01,2013-06-22 08:00:00,
2013-06-22 03:01:00,68.4,66.9,29.88,South,182,1.0,3.0,95,0.00,,---,0.00,0.00,VWS V14.01,2013-06-22 08:01:00,
2013-06-22 03:06:00,68.8,67.0,29.88,SSW,194,2.0,5.0,94,0.00,,---,0.00,0.00,VWS V14.01,2013-06-22 08:06:00,
2013-06-22 03:11:00,69.1,67.3,29.87,SSW,207,4.0,5.0,94,0.00,,---,0.00,0.00,VWS V14.01,2013-06-22 08:11:00,
2013-06-22 03:16:00,69.2,67.4,29.88,SW,219,2.0,5.0,94,0.00,,---,0.00,0.00,VWS V14.01,2013-06-22 08:16:00,
2013-06-22 03:21:00,69.3,67.5,29.88,SW,219,0.0,5.0,94,0.00,,---,0.00,0.00,VWS V14.01,2013-06-22 08:21:00,
2013-06-22 03:25:00,69.3,67.5,29.88,SW,219,0.0,5.0,94,0.00,,---,0.00,0.00,VWS V14.01,2013-06-22 08:25:00,
2013-06-22 03:30:00,69.4,67.6,29.88,SW,219,0.0,5.0,94,0.00,,---,0.00,0.00,VWS V14.01,2013-06-22 08:30:00,
2013-06-22 03:35:00,69.4,67.6,29.90,SW,219,2.0,5.0,94,0.00,,---,0.00,0.00,VWS V14.01,2013-06-22 08:35:00,
2013-06-22 03:40:00,69.4,67.6,29.92,WSW,254,2.0,5.0,94,0.00,,---,0.00,0.00,VWS V14.01,2013-06-22 08:40:00,
2013-06-22 03:45:00,69.4,67.6,29.92,WSW,240,2.0,5.0,94,0.01,,---,0.01,0.00,VWS V14.01,2013-06-22 08:45:00,
2013-06-22 03:50:00,69.5,67.7,29.91,SSW,211,3.0,5.0,94,0.01,,---,0.01,0.00,VWS V14.01,2013-06-22 08:50:00,
2013-06-22 03:55:00,69.5,67.7,29.91,SSW,213,0.0,5.0,94,0.01,,---,0.01,0.00,VWS V14.01,2013-06-22 08:55:00,
2013-06-22 04:00:00,69.5,67.7,29.90,SSE,156,0.0,3.0,94,0.01,,---,0.01,0.00,VWS V14.01,2013-06-22 09:00:00,
2013-06-22 04:05:00,69.4,67.6,29.90,SSE,157,1.0,3.0,94,0.01,,---,0.01,0.00,VWS V14.01,2013-06-22 09:05:00,
2013-06-22 04:10:00,69.4,67.6,29.91,SW,236,0.0,3.0,94,0.01,,---,0.01,0.00,VWS V14.01,2013-06-22 09:10:00,
2013-06-22 04:15:00,69.4,67.6,29.92,SW,236,0.0,3.0,94,0.02,,---,0.02,0.00,VWS V14.01,2013-06-22 09:15:00,
2013-06-22 04:20:00,69.3,67.5,29.92,SW,217,1.0,3.0,94,0.02,,---,0.02,0.00,VWS V14.01,2013-06-22 09:20:00,
2013-06-22 04:25:00,69.3,67.5,29.91,SSE,157,0.0,4.0,94,0.02,,---,0.02,0.00,VWS V14.01,2013-06-22 09:25:00,
2013-06-22 04:30:00,69.3,67.5,29.90,ESE,123,0.0,4.0,94,0.03,,---,0.03,0.00,VWS V14.01,2013-06-22 09:30:00,
2013-06-22 04:35:00,69.3,67.5,29.91,ESE,123,0.0,4.0,94,0.03,,---,0.03,0.00,VWS V14.01,2013-06-22 09:35:00,
2013-06-22 04:40:00,69.2,67.4,29.92,ENE,66,2.0,4.0,94,0.04,,---,0.04,0.00,VWS V14.01,2013-06-22 09:40:00,
2013-06-22 04:45:00,69.1,67.3,29.93,ENE,59,1.0,4.0,94,0.04,,---,0.04,0.00,VWS V14.01,2013-06-22 09:45:00,
2013-06-22 04:50:00,69.0,67.2,29.92,ENE,58,1.0,4.0,94,0.04,,---,0.04,0.00,VWS V14.01,2013-06-22 09:50:00,
2013-06-22 04:55:00,69.0,67.5,29.93,ENE,58,0.0,4.0,95,0.04,,---,0.04,0.00,VWS V14.01,2013-06-22 09:55:00,
2013-06-22 05:00:00,69.0,67.5,29.94,ENE,58,0.0,1.0,95,0.04,,---,0.05,0.00,VWS V14.01,2013-06-22 10:00:00,
2013-06-22 05:05:00,68.9,67.4,29.93,ENE,58,0.0,2.0,95,0.05,,---,0.06,0.00,VWS V14.01,2013-06-22 10:05:00,
2013-06-22 05:10:00,68.9,67.4,29.94,ENE,58,1.0,2.0,95,0.06,,---,0.07,0.00,VWS V14.01,2013-06-22 10:10:00,
2013-06-22 05:15:00,68.9,67.4,29.95,ENE,58,0.0,2.0,95,0.07,,---,0.08,0.00,VWS V14.01,2013-06-22 10:15:00,
2013-06-22 05:20:00,68.8,67.3,29.96,ENE,58,0.0,2.0,95,0.08,,---,0.09,0.00,VWS V14.01,2013-06-22 10:20:00,
2013-06-22 05:25:00,68.8,67.6,29.97,ENE,58,0.0,2.0,96,0.09,,---,0.10,0.00,VWS V14.01,2013-06-22 10:25:00,
2013-06-22 05:30:00,68.9,67.7,29.97,ENE,58,0.0,2.0,96,0.09,,---,0.10,0.00,VWS V14.01,2013-06-22 10:30:00,
2013-06-22 05:35:00,68.9,67.7,29.96,ENE,58,2.0,2.0,96,0.10,,---,0.11,0.00,VWS V14.01,2013-06-22 10:35:00,
2013-06-22 05:40:00,68.9,67.7,29.99,ENE,58,1.0,2.0,96,0.11,,---,0.12,0.00,VWS V14.01,2013-06-22 10:40:00,
2013-06-22 05:45:00,68.9,67.7,30.00,ENE,58,0.0,2.0,96,0.11,,---,0.12,0.00,VWS V14.01,2013-06-22 10:45:00,
2013-06-22 05:50:00,68.9,67.7,30.00,ENE,58,0.0,2.0,96,0.11,,---,0.12,0.00,VWS V14.01,2013-06-22 10:50:00,
2013-06-22 05:55:00,68.8,67.6,30.00,ENE,58,1.0,2.0,96,0.12,,---,0.13,0.00,VWS V14.01,2013-06-22 10:55:00,
2013-06-22 06:00:00,68.8,67.6,30.01,West,272,0.0,0.0,96,0.09,,---,0.13,0.00,VWS V14.01,2013-06-22 11:00:00,
2013-06-22 06:05:00,68.8,67.6,30.01,WNW,290,0.0,3.0,96,0.10,,---,0.14,0.00,VWS V14.01,2013-06-22 11:05:00,
2013-06-22 06:10:00,68.8,67.6,30.00,North,349,0.0,3.0,96,0.10,,---,0.14,5.00,VWS V14.01,2013-06-22 11:10:00,
2013-06-22 06:15:00,68.7,67.5,30.00,ENE,59,0.0,3.0,96,0.10,,---,0.14,11.00,VWS V14.01,2013-06-22 11:15:00,
2013-06-22 06:20:00,68.6,67.4,30.00,ENE,59,0.0,3.0,96,0.10,,---,0.14,14.00,VWS V14.01,2013-06-22 11:20:00,
2013-06-22 06:25:00,68.6,67.4,30.00,ENE,59,0.0,3.0,96,0.10,,---,0.14,16.00,VWS V14.01,2013-06-22 11:25:00,
2013-06-22 06:30:00,68.6,67.4,30.00,ENE,59,0.0,3.0,96,0.10,,---,0.14,16.00,VWS V14.01,2013-06-22 11:30:00,
2013-06-22 06:35:00,68.6,67.4,30.00,ENE,59,0.0,3.0,96,0.10,,---,0.14,21.00,VWS V14.01,2013-06-22 11:35:00,
2013-06-22 06:40:00,68.6,67.4,29.99,ENE,59,1.0,3.0,96,0.10,,---,0.14,25.00,VWS V14.01,2013-06-22 11:40:00,
2013-06-22 06:45:00,68.6,67.4,29.99,ENE,59,0.0,3.0,96,0.10,,---,0.14,16.00,VWS V14.01,2013-06-22 11:45:00,
2013-06-22 06:50:00,68.6,67.4,29.99,ENE,70,0.0,3.0,96,0.10,,---,0.14,12.00,VWS V14.01,2013-06-22 11:50:00,
2013-06-22 06:55:00,68.5,67.6,29.98,ENE,70,1.0,3.0,97,0.10,,---,0.14,9.00,VWS V14.01,2013-06-22 11:55:00,
2013-06-22 07:00:00,68.5,67.6,29.96,ESE,120,1.0,2.0,97,0.02,,---,0.15,7.00,VWS V14.01,2013-06-22 12:00:00,
2013-06-22 07:05:00,68.4,67.5,29.96,SE,132,0.0,2.0,97,0.02,,---,0.15,7.00,VWS V14.01,2013-06-22 12:05:00,
2013-06-22 07:10:00,68.3,67.4,29.96,SE,132,0.0,2.0,97,0.03,,---,0.16,7.00,VWS V14.01,2013-06-22 12:10:00,
2013-06-22 07:15:00,68.3,67.1,29.96,SE,136,0.0,2.0,96,0.04,,---,0.17,7.00,VWS V14.01,2013-06-22 12:15:00,
2013-06-22 07:20:00,68.2,67.0,29.95,SE,136,0.0,2.0,96,0.04,,---,0.17,5.00,VWS V14.01,2013-06-22 12:20:00,
2013-06-22 07:25:00,68.2,67.3,29.96,SE,136,0.0,2.0,97,0.05,,---,0.18,5.00,VWS V14.01,2013-06-22 12:25:00,
2013-06-22 07:30:00,68.1,67.2,29.97,SE,136,0.0,2.0,97,0.06,,---,0.19,5.00,VWS V14.01,2013-06-22 12:30:00,
2013-06-22 07:35:00,68.1,67.2,29.98,SE,136,2.0,2.0,97,0.07,,---,0.20,0.00,VWS V14.01,2013-06-22 12:35:00,
2013-06-22 07:40:00,68.1,67.2,30.00,SE,136,0.0,2.0,97,0.07,,---,0.20,0.00,VWS V14.01,2013-06-22 12:40:00,
2013-06-22 07:45:00,68.1,67.2,30.00,NNE,15,0.0,3.0,97,0.08,,---,0.21,0.00,VWS V14.01,2013-06-22 12:45:00,
2013-06-22 07:50:00,68.1,67.2,30.00,NNE,15,1.0,3.0,97,0.10,,---,0.23,0.00,VWS V14.01,2013-06-22 12:50:00,
2013-06-22 07:55:00,68.1,67.2,29.99,SE,126,1.0,3.0,97,0.11,,---,0.24,0.00,VWS V14.01,2013-06-22 12:55:00,
2013-06-22 08:00:00,68.0,67.1,29.97,SE,126,0.0,1.0,97,0.12,,---,0.26,0.00,VWS V14.01,2013-06-22 13:00:00,
2013-06-22 08:05:00,67.9,67.0,29.96,ENE,74,1.0,2.0,97,0.13,,---,0.27,0.00,VWS V14.01,2013-06-22 13:05:00,
2013-06-22 08:10:00,67.7,66.8,29.93,ENE,63,4.0,4.0,97,0.14,,---,0.28,5.00,VWS V14.01,2013-06-22 13:10:00,
2013-06-22 08:15:00,67.4,66.2,29.95,West,260,2.0,7.0,96,0.15,,---,0.29,5.00,VWS V14.01,2013-06-22 13:15:00,
2013-06-22 08:20:00,67.1,65.9,29.99,SSW,200,2.0,7.0,96,0.16,,---,0.30,5.00,VWS V14.01,2013-06-22 13:20:00,
2013-06-22 08:25:00,67.1,65.9,30.00,SSW,195,0.0,7.0,96,0.17,,---,0.31,5.00,VWS V14.01,2013-06-22 13:25:00,
2013-06-22 08:30:00,67.1,65.9,30.00,SSW,195,2.0,7.0,96,0.18,,---,0.32,5.00,VWS V14.01,2013-06-22 13:30:00,
2013-06-22 08:35:00,67.0,65.8,30.01,SSW,202,0.0,7.0,96,0.19,,---,0.33,0.00,VWS V14.01,2013-06-22 13:35:00,
2013-06-22 08:40:00,67.0,65.8,29.99,East,88,2.0,7.0,96,0.20,,---,0.34,5.00,VWS V14.01,2013-06-22 13:40:00,
2013-06-22 08:45:00,66.9,65.7,30.00,ENE,61,0.0,7.0,96,0.20,,---,0.34,5.00,VWS V14.01,2013-06-22 13:45:00,
2013-06-22 08:50:00,66.8,65.6,29.99,ESE,105,0.0,7.0,96,0.21,,---,0.35,7.00,VWS V14.01,2013-06-22 13:50:00,
2013-06-22 08:55:00,66.8,65.6,30.00,East,89,0.0,7.0,96,0.21,,---,0.35,7.00,VWS V14.01,2013-06-22 13:55:00,
2013-06-22 09:00:00,66.7,65.5,29.99,East,90,1.0,1.0,96,0.11,,---,0.36,9.00,VWS V14.01,2013-06-22 14:00:00,
2013-06-22 09:05:00,66.7,65.5,29.98,East,90,1.0,2.0,96,0.11,,---,0.36,9.00,VWS V14.01,2013-06-22 14:05:00,
2013-06-22 09:10:00,66.7,65.5,29.97,East,92,1.0,3.0,96,0.11,,---,0.36,11.00,VWS V14.01,2013-06-22 14:10:00,
2013-06-22 09:15:00,66.7,65.5,29.97,East,92,0.0,3.0,96,0.12,,---,0.37,12.00,VWS V14.01,2013-06-22 14:15:00,
2013-06-22 09:20:00,66.6,65.4,29.97,South,176,1.0,3.0,96,0.12,,---,0.37,12.00,VWS V14.01,2013-06-22 14:20:00,
2013-06-22 09:25:00,66.5,65.3,29.97,South,169,0.0,3.0,96,0.12,,---,0.37,16.00,VWS V14.01,2013-06-22 14:25:00,
2013-06-22 09:30:00,66.5,65.3,29.98,North,355,1.0,3.0,96,0.12,,---,0.37,16.00,VWS V14.01,2013-06-22 14:30:00,
2013-06-22 09:35:00,66.4,65.2,29.96,ENE,61,3.0,8.0,96,0.13,,---,0.38,19.00,VWS V14.01,2013-06-22 14:35:00,
2013-06-22 09:40:00,66.3,65.1,29.94,East,92,3.0,8.0,96,0.13,,---,0.38,23.00,VWS V14.01,2013-06-22 14:40:00,
2013-06-22 09:45:00,66.3,65.1,29.92,NE,49,2.0,8.0,96,0.13,,---,0.38,26.00,VWS V14.01,2013-06-22 14:45:00,
2013-06-22 09:50:00,66.3,65.1,29.91,ESE,114,2.0,8.0,96,0.13,,---,0.38,28.00,VWS V14.01,2013-06-22 14:50:00,
2013-06-22 09:55:00,66.2,65.0,29.90,SSE,153,3.0,8.0,96,0.14,,---,0.39,32.00,VWS V14.01,2013-06-22 14:55:00,
2013-06-22 10:00:00,66.1,64.9,29.90,South,186,4.0,4.0,96,0.03,,---,0.39,33.00,VWS V14.01,2013-06-22 15:00:00,
2013-06-22 10:05:00,66.2,65.0,29.92,South,188,1.0,6.0,96,0.03,,---,0.39,35.00,VWS V14.01,2013-06-22 15:05:00,
2013-06-22 10:10:00,66.2,65.0,29.92,SSE,153,0.0,6.0,96,0.03,,---,0.39,37.00,VWS V14.01,2013-06-22 15:10:00,
2013-06-22 10:15:00,66.2,65.0,29.91,SSW,198,1.0,6.0,96,0.03,,---,0.39,40.00,VWS V14.01,2013-06-22 15:15:00,
2013-06-22 10:20:00,66.3,65.1,29.92,South,171,1.0,6.0,96,0.03,,---,0.39,40.00,VWS V14.01,2013-06-22 15:20:00,
2013-06-22 10:25:00,66.4,64.9,29.90,West,280,1.0,6.0,95,0.03,,---,0.39,42.00,VWS V14.01,2013-06-22 15:25:00,
2013-06-22 10:30:00,66.5,65.0,29.89,NE,50,1.0,6.0,95,0.03,,---,0.39,47.00,VWS V14.01,2013-06-22 15:30:00,
2013-06-22 10:35:00,66.6,64.8,29.86,ESE,105,5.0,7.0,94,0.03,,---,0.39,56.00,VWS V14.01,2013-06-22 15:35:00,
2013-06-22 10:40:00,66.9,65.1,29.84,NE,43,7.0,9.0,94,0.03,,---,0.39,62.00,VWS V14.01,2013-06-22 15:40:00,
2013-06-22 10:45:00,67.2,65.1,29.83,NE,35,3.0,9.0,93,0.03,,---,0.39,65.00,VWS V14.01,2013-06-22 15:45:00,
2013-06-22 10:50:00,67.4,65.0,29.83,SE,146,1.0,9.0,92,0.03,,---,0.39,69.00,VWS V14.01,2013-06-22 15:50:00,
2013-06-22 10:55:00,67.6,64.9,29.81,ENE,60,5.0,9.0,91,0.03,,---,0.39,74.00,VWS V14.01,2013-06-22 15:55:00,
2013-06-22 11:00:00,67.8,64.8,29.82,SE,130,4.0,4.0,90,0.00,,---,0.39,79.00,VWS V14.01,2013-06-22 16:00:00,
2013-06-22 11:05:00,68.0,64.6,29.82,NE,34,2.0,9.0,89,0.00,,---,0.39,86.00,VWS V14.01,2013-06-22 16:05:00,
2013-06-22 11:10:00,68.3,64.9,29.88,WSW,248,1.0,9.0,89,0.00,,---,0.39,95.00,VWS V14.01,2013-06-22 16:10:00,
2013-06-22 11:15:00,68.4,65.0,29.87,WSW,245,2.0,9.0,89,0.00,,---,0.39,114.00,VWS V14.01,2013-06-22 16:15:00,
2013-06-22 11:20:00,68.6,65.2,29.87,SSW,213,1.0,9.0,89,0.00,,---,0.39,142.00,VWS V14.01,2013-06-22 16:20:00,
2013-06-22 11:25:00,68.8,65.8,29.87,NNW,329,2.0,9.0,90,0.00,,---,0.39,178.00,VWS V14.01,2013-06-22 16:25:00,
2013-06-22 11:30:00,68.9,65.8,29.88,NNW,329,0.0,9.0,90,0.00,,---,0.39,209.00,VWS V14.01,2013-06-22 16:30:00,
2013-06-22 11:35:00,69.1,65.7,29.88,West,263,1.0,9.0,89,0.00,,---,0.39,236.00,VWS V14.01,2013-06-22 16:35:00,
2013-06-22 11:40:00,69.5,66.4,29.88,West,262,1.0,9.0,90,0.00,,---,0.39,255.00,VWS V14.01,2013-06-22 16:40:00,
2013-06-22 11:45:00,70.4,66.3,29.89,West,262,0.0,9.0,87,0.00,,---,0.39,272.00,VWS V14.01,2013-06-22 16:45:00,
2013-06-22 11:50:00,71.5,66.4,29.89,WSW,254,0.0,9.0,84,0.00,,---,0.39,290.00,VWS V14.01,2013-06-22 16:50:00,
2013-06-22 11:55:00,72.0,66.6,29.89,WSW,242,2.0,9.0,83,0.00,,---,0.39,323.00,VWS V14.01,2013-06-22 16:55:00,
2013-06-22 12:00:00,72.2,66.8,29.89,SW,234,4.0,4.0,83,0.00,,---,0.39,353.00,VWS V14.01,2013-06-22 17:00:00,
2013-06-22 12:05:00,72.3,67.2,29.89,SW,216,3.0,4.0,84,0.00,,---,0.39,360.00,VWS V14.01,2013-06-22 17:05:00,
2013-06-22 12:10:00,72.4,66.6,29.89,SW,222,3.0,4.0,82,0.00,,---,0.39,366.00,VWS V14.01,2013-06-22 17:10:00,
2013-06-22 12:15:00,72.4,66.6,29.88,SSW,202,3.0,5.0,82,0.00,,---,0.39,371.00,VWS V14.01,2013-06-22 17:15:00,
2013-06-22 12:20:00,72.6,66.8,29.88,SW,228,2.0,6.0,82,0.00,,---,0.39,381.00,VWS V14.01,2013-06-22 17:20:00,
2013-06-22 12:25:00,72.8,67.3,29.89,SSW,203,4.0,6.0,83,0.00,,---,0.39,404.00,VWS V14.01,2013-06-22 17:25:00,
2013-06-22 12:30:00,73.0,66.8,29.89,SW,234,3.0,6.0,81,0.00,,---,0.39,438.00,VWS V14.01,2013-06-22 17:30:00,
2013-06-22 12:35:00,73.6,68.1,29.89,SW,218,2.0,6.0,83,0.00,,---,0.39,543.00,VWS V14.01,2013-06-22 17:35:00,
2013-06-22 12:40:00,74.2,67.6,29.89,SW,224,3.0,6.0,80,0.00,,---,0.39,577.00,VWS V14.01,2013-06-22 17:40:00,
2013-06-22 12:45:00,74.8,67.9,29.89,SSW,202,3.0,6.0,79,0.00,,---,0.39,617.00,VWS V14.01,2013-06-22 17:45:00,
2013-06-22 12:50:00,75.1,68.2,29.89,SSW,200,5.0,6.0,79,0.00,,---,0.39,633.00,VWS V14.01,2013-06-22 17:50:00,
2013-06-22 12:55:00,75.6,68.3,29.88,SSW,210,2.0,6.0,78,0.00,,---,0.39,717.00,VWS V14.01,2013-06-22 17:55:00,
2013-06-22 13:00:00,76.4,69.0,29.88,WSW,237,1.0,3.0,78,0.00,,---,0.39,680.00,VWS V14.01,2013-06-22 18:00:00,
2013-06-22 13:05:00,76.9,68.8,29.89,WSW,251,1.0,3.0,76,0.00,,---,0.39,555.00,VWS V14.01,2013-06-22 18:05:00,
2013-06-22 13:10:00,77.4,69.6,29.89,WSW,239,1.0,3.0,77,0.00,,---,0.39,490.00,VWS V14.01,2013-06-22 18:10:00,
2013-06-22 13:15:00,77.1,68.6,29.89,SSW,207,1.0,4.0,75,0.00,,---,0.39,489.00,VWS V14.01,2013-06-22 18:15:00,
2013-06-22 13:20:00,77.2,69.4,29.89,WSW,237,2.0,4.0,77,0.00,,---,0.39,455.00,VWS V14.01,2013-06-22 18:20:00,
2013-06-22 13:25:00,77.5,69.3,29.90,WSW,237,1.0,4.0,76,0.00,,---,0.39,432.00,VWS V14.01,2013-06-22 18:25:00,
2013-06-22 13:30:00,77.5,69.3,29.89,SSW,213,0.0,4.0,76,0.00,,---,0.39,410.00,VWS V14.01,2013-06-22 18:30:00,
2013-06-22 13:35:00,77.6,68.7,29.89,WSW,245,2.0,5.0,74,0.00,,---,0.39,381.00,VWS V14.01,2013-06-22 18:35:00,
2013-06-22 13:40:00,77.4,68.5,29.89,SSW,211,2.0,5.0,74,0.00,,---,0.39,373.00,VWS V14.01,2013-06-22 18:40:00,
2013-06-22 13:45:00,77.2,68.3,29.89,SW,219,2.0,6.0,74,0.00,,---,0.39,357.00,VWS V14.01,2013-06-22 18:45:00,
2013-06-22 13:50:00,77.1,68.6,29.89,SSW,211,3.0,6.0,75,0.00,,---,0.39,360.00,VWS V14.01,2013-06-22 18:50:00,
2013-06-22 13:55:00,77.0,68.1,29.89,SSW,209,3.0,6.0,74,0.00,,---,0.39,355.00,VWS V14.01,2013-06-22 18:55:00,
2013-06-22 14:00:00,77.1,69.0,29.89,SW,236,2.0,3.0,76,0.00,,---,0.39,364.00,VWS V14.01,2013-06-22 19:00:00,
2013-06-22 14:05:00,77.1,68.6,29.89,SW,235,2.0,4.0,75,0.00,,---,0.39,390.00,VWS V14.01,2013-06-22 19:05:00,
2013-06-22 14:10:00,77.4,68.5,29.89,SW,235,1.0,4.0,74,0.00,,---,0.39,399.00,VWS V14.01,2013-06-22 19:10:00,
2013-06-22 14:15:00,77.6,69.1,29.89,SW,235,0.0,4.0,75,0.00,,---,0.39,425.00,VWS V14.01,2013-06-22 19:15:00,
2013-06-22 14:20:00,78.1,69.1,29.89,South,174,2.0,4.0,74,0.00,,---,0.39,575.00,VWS V14.01,2013-06-22 19:20:00,
2013-06-22 14:25:00,78.7,69.7,29.88,SW,220,1.0,4.0,74,0.00,,---,0.39,640.00,VWS V14.01,2013-06-22 19:25:00,
2013-06-22 14:30:00,79.4,69.2,29.88,South,188,2.0,4.0,71,0.00,,---,0.39,599.00,VWS V14.01,2013-06-22 19:30:00,
2013-06-22 14:35:00,79.7,69.1,29.87,SSE,165,0.0,4.0,70,0.00,,---,0.39,550.00,VWS V14.01,2013-06-22 19:35:00,
2013-06-22 14:40:00,79.6,69.0,29.87,SSE,163,1.0,4.0,70,0.00,,---,0.39,554.00,VWS V14.01,2013-06-22 19:40:00,
2013-06-22 14:45:00,80.0,70.2,29.86,South,174,2.0,4.0,72,0.00,,---,0.39,719.00,VWS V14.01,2013-06-22 19:45:00,
2013-06-22 14:50:00,80.1,69.0,29.86,SE,139,1.0,5.0,69,0.00,,---,0.39,751.00,VWS V14.01,2013-06-22 19:50:00,
2013-06-22 14:55:00,81.1,69.6,29.85,SE,135,1.0,5.0,68,0.00,,---,0.39,659.00,VWS V14.01,2013-06-22 19:55:00,
2013-06-22 15:00:00,80.8,69.7,29.85,ESE,117,0.0,1.0,69,0.00,,---,0.39,918.00,VWS V14.01,2013-06-22 20:00:00,
2013-06-22 15:05:00,82.3,70.7,29.86,South,175,1.0,3.0,68,0.00,,---,0.39,939.00,VWS V14.01,2013-06-22 20:05:00,
2013-06-22 15:10:00,81.9,69.4,29.86,SSE,152,0.0,4.0,66,0.00,,---,0.39,547.00,VWS V14.01,2013-06-22 20:10:00,
2013-06-22 15:15:00,82.0,69.5,29.87,SE,137,1.0,4.0,66,0.00,,---,0.39,512.00,VWS V14.01,2013-06-22 20:15:00,
2013-06-22 15:20:00,81.4,69.0,29.86,SSW,192,1.0,4.0,66,0.00,,---,0.39,506.00,VWS V14.01,2013-06-22 20:20:00,
2013-06-22 15:25:00,81.0,69.4,29.87,SE,137,0.0,4.0,68,0.00,,---,0.39,860.00,VWS V14.01,2013-06-22 20:25:00,
2013-06-22 15:30:00,82.2,70.6,29.87,SE,131,3.0,4.0,68,0.00,,---,0.39,947.00,VWS V14.01,2013-06-22 20:30:00,
2013-06-22 15:35:00,82.3,70.3,29.87,SSE,147,3.0,7.0,67,0.00,,---,0.39,891.00,VWS V14.01,2013-06-22 20:35:00,
2013-06-22 15:40:00,83.2,70.2,29.87,East,86,1.0,7.0,65,0.00,,---,0.39,853.00,VWS V14.01,2013-06-22 20:40:00,
2013-06-22 15:45:00,82.7,69.8,29.87,ESE,102,1.0,7.0,65,0.00,,---,0.39,812.00,VWS V14.01,2013-06-22 20:45:00,
2013-06-22 15:50:00,83.8,70.8,29.87,East,100,1.0,7.0,65,0.00,,---,0.39,795.00,VWS V14.01,2013-06-22 20:50:00,
2013-06-22 15:55:00,84.1,71.5,29.86,East,88,0.0,7.0,66,0.00,,---,0.39,791.00,VWS V14.01,2013-06-22 20:55:00,
2013-06-22 16:00:00,84.7,71.2,29.87,East,90,2.0,2.0,64,0.00,,---,0.39,659.00,VWS V14.01,2013-06-22 21:00:00,
2013-06-22 16:05:00,83.5,70.9,29.87,ENE,64,3.0,4.0,66,0.00,,---,0.39,693.00,VWS V14.01,2013-06-22 21:05:00,
2013-06-22 16:10:00,84.3,71.3,29.86,ENE,74,4.0,4.0,65,0.00,,---,0.39,700.00,VWS V14.01,2013-06-22 21:10:00,
2013-06-22 16:15:00,83.9,70.4,29.86,ENE,67,1.0,5.0,64,0.00,,---,0.39,673.00,VWS V14.01,2013-06-22 21:15:00,
2013-06-22 16:20:00,83.2,70.2,29.86,SSE,149,0.0,5.0,65,0.00,,---,0.39,538.00,VWS V14.01,2013-06-22 21:20:00,
2013-06-22 16:25:00,82.5,70.4,29.86,SSE,154,0.0,5.0,67,0.00,,---,0.39,424.00,VWS V14.01,2013-06-22 21:25:00,
2013-06-22 16:30:00,83.8,71.2,29.86,South,182,0.0,5.0,66,0.00,,---,0.39,294.00,VWS V14.01,2013-06-22 21:30:00,
2013-06-22 16:35:00,82.9,70.4,29.86,ESE,106,1.0,7.0,66,0.00,,---,0.39,271.00,VWS V14.01,2013-06-22 21:35:00,
2013-06-22 16:40:00,82.4,70.8,29.86,East,84,3.0,7.0,68,0.00,,---,0.39,236.00,VWS V14.01,2013-06-22 21:40:00,
2013-06-22 16:45:00,82.7,70.6,29.86,ESE,107,1.0,7.0,67,0.00,,---,0.39,209.00,VWS V14.01,2013-06-22 21:45:00,
2013-06-22 16:50:00,81.9,70.7,29.87,ENE,62,3.0,7.0,69,0.00,,---,0.39,160.00,VWS V14.01,2013-06-22 21:50:00,
2013-06-22 16:55:00,82.3,71.1,29.87,ENE,62,1.0,7.0,69,0.00,,---,0.39,134.00,VWS V14.01,2013-06-22 21:55:00,
2013-06-22 17:00:00,81.8,71.1,29.87,ENE,62,0.0,0.0,70,0.00,,---,0.39,146.00,VWS V14.01,2013-06-22 22:00:00,
2013-06-22 17:05:00,81.6,71.3,29.88,ENE,62,0.0,2.0,71,0.00,,---,0.39,141.00,VWS V14.01,2013-06-22 22:05:00,
2013-06-22 17:10:00,81.6,71.3,29.88,ENE,62,1.0,2.0,71,0.00,,---,0.39,97.00,VWS V14.01,2013-06-22 22:10:00,
2013-06-22 17:15:00,81.7,71.0,29.88,ENE,62,2.0,3.0,70,0.00,,---,0.39,77.00,VWS V14.01,2013-06-22 22:15:00,
2013-06-22 17:20:00,81.4,70.3,29.88,East,79,3.0,4.0,69,0.00,,---,0.39,86.00,VWS V14.01,2013-06-22 22:20:00,
2013-06-22 17:25:00,80.9,70.6,29.88,NE,50,2.0,4.0,71,0.00,,---,0.39,111.00,VWS V14.01,2013-06-22 22:25:00,
2013-06-22 17:30:00,80.6,70.8,29.88,NE,50,0.0,4.0,72,0.00,,---,0.39,134.00,VWS V14.01,2013-06-22 22:30:00,
2013-06-22 17:35:00,80.4,71.0,29.88,NE,50,2.0,4.0,73,0.00,,---,0.39,179.00,VWS V14.01,2013-06-22 22:35:00,
2013-06-22 17:40:00,80.3,70.9,29.88,ENE,68,2.0,5.0,73,0.00,,---,0.39,237.00,VWS V14.01,2013-06-22 22:40:00,
2013-06-22 17:45:00,80.6,71.2,29.88,ENE,67,4.0,5.0,73,0.00,,---,0.39,137.00,VWS V14.01,2013-06-22 22:45:00,
2013-06-22 17:50:00,80.5,70.2,29.88,ENE,57,4.0,8.0,71,0.00,,---,0.39,90.00,VWS V14.01,2013-06-22 22:50:00,
2013-06-22 17:55:00,80.3,70.5,29.88,ENE,76,3.0,8.0,72,0.00,,---,0.39,93.00,VWS V14.01,2013-06-22 22:55:00,
2013-06-22 18:00:00,80.0,70.2,29.87,ENE,59,8.0,9.0,72,0.00,,---,0.39,88.00,VWS V14.01,2013-06-22 23:00:00,
2013-06-22 18:05:00,79.6,70.6,29.86,NE,46,4.0,10.0,74,0.00,,---,0.39,58.00,VWS V14.01,2013-06-22 23:05:00,
2013-06-22 18:10:00,79.2,70.2,29.86,NNE,32,4.0,10.0,74,0.00,,---,0.39,47.00,VWS V14.01,2013-06-22 23:10:00,
2013-06-22 18:15:00,78.8,70.2,29.86,NE,55,3.0,10.0,75,0.00,,---,0.39,49.00,VWS V14.01,2013-06-22 23:15:00,
2013-06-22 18:20:00,78.5,70.3,29.86,ENE,57,3.0,10.0,76,0.00,,---,0.39,51.00,VWS V14.01,2013-06-22 23:20:00,
2013-06-22 18:25:00,78.3,70.1,29.85,ENE,58,9.0,10.0,76,0.00,,---,0.39,49.00,VWS V14.01,2013-06-22 23:25:00,
2013-06-22 18:30:00,78.1,70.3,29.85,ENE,69,2.0,10.0,77,0.00,,---,0.39,26.00,VWS V14.01,2013-06-22 23:30:00,
2013-06-22 18:35:00,77.9,70.5,29.85,ENE,76,2.0,10.0,78,0.00,,---,0.39,49.00,VWS V14.01,2013-06-22 23:35:00,
2013-06-22 18:40:00,77.5,70.5,29.84,NNE,33,4.0,10.0,79,0.00,,---,0.39,53.00,VWS V14.01,2013-06-22 23:40:00,
2013-06-22 18:45:00,77.2,70.6,29.83,ENE,65,3.0,10.0,80,0.00,,---,0.39,46.00,VWS V14.01,2013-06-22 23:45:00,
2013-06-22 18:50:00,76.9,70.6,29.84,ENE,64,1.0,10.0,81,0.00,,---,0.39,30.00,VWS V14.01,2013-06-22 23:50:00,
2013-06-22 18:55:00,76.8,71.2,29.84,NE,56,4.0,10.0,83,0.00,,---,0.39,26.00,VWS V14.01,2013-06-22 23:55:00,
2013-06-22 18:59:00,76.4,71.2,29.84,NE,43,5.0,5.0,84,0.00,,---,0.39,12.00,VWS V14.01,2013-06-22 23:59:00,
2013-06-22 19:00:00,76.5,71.3,29.84,NE,51,2.0,10.0,84,0.00,,---,0.39,12.00,VWS V14.01,2013-06-23 00:00:00,
2013-06-22 19:04:00,75.9,71.1,29.83,ENE,67,3.0,8.0,85,0.00,,---,0.39,21.00,VWS V14.01,2013-06-23 00:04:00,
2013-06-22 19:09:00,75.5,71.0,29.83,NE,52,4.0,8.0,86,0.00,,---,0.39,18.00,VWS V14.01,2013-06-23 00:09:00,
2013-06-22 19:14:00,75.3,71.2,29.84,NE,56,2.0,8.0,87,0.00,,---,0.39,11.00,VWS V14.01,2013-06-23 00:14:00,
2013-06-22 19:19:00,75.2,71.4,29.84,NE,55,1.0,8.0,88,0.02,,---,0.41,5.00,VWS V14.01,2013-06-23 00:19:00,
2013-06-22 19:24:00,75.0,71.5,29.85,NE,55,0.0,8.0,89,0.03,,---,0.42,0.00,VWS V14.01,2013-06-23 00:24:00,
2013-06-22 19:29:00,74.9,71.4,29.86,NE,55,1.0,8.0,89,0.04,,---,0.43,0.00,VWS V14.01,2013-06-23 00:29:00,
2013-06-22 19:34:00,74.8,71.3,29.84,NE,55,1.0,8.0,89,0.04,,---,0.43,0.00,VWS V14.01,2013-06-23 00:34:00,
2013-06-22 19:39:00,74.5,71.4,29.84,NE,55,1.0,8.0,90,0.05,,---,0.44,0.00,VWS V14.01,2013-06-23 00:39:00,
2013-06-22 19:44:00,74.1,71.0,29.85,NE,56,2.0,8.0,90,0.05,,---,0.44,0.00,VWS V14.01,2013-06-23 00:44:00,
2013-06-22 19:49:00,73.8,71.0,29.84,NE,56,0.0,8.0,91,0.05,,---,0.44,0.00,VWS V14.01,2013-06-23 00:49:00,
2013-06-22 19:54:00,73.7,70.9,29.84,NE,55,1.0,8.0,91,0.05,,---,0.44,0.00,VWS V14.01,2013-06-23 00:54:00,
2013-06-22 19:59:00,73.5,71.0,29.85,ENE,57,0.0,1.0,92,0.05,,---,0.44,0.00,VWS V14.01,2013-06-23 00:59:00,
2013-06-22 20:00:00,73.5,71.0,29.85,ENE,57,1.0,8.0,92,0.05,,---,0.44,0.00,VWS V14.01,2013-06-23 01:00:00,
2013-06-22 20:04:00,73.3,70.8,29.84,ENE,61,2.0,3.0,92,0.05,,---,0.44,0.00,VWS V14.01,2013-06-23 01:04:00,
2013-06-22 20:09:00,73.0,70.5,29.84,ESE,115,1.0,3.0,92,0.05,,---,0.44,0.00,VWS V14.01,2013-06-23 01:09:00,
2013-06-22 20:14:00,72.6,70.2,29.85,ESE,123,0.0,8.0,92,0.05,,---,0.44,0.00,VWS V14.01,2013-06-23 01:14:00,
2013-06-22 20:19:00,72.4,69.9,29.85,East,99,1.0,8.0,92,0.05,,---,0.44,0.00,VWS V14.01,2013-06-23 01:19:00,
2013-06-22 20:24:00,72.3,70.2,29.84,NE,52,3.0,8.0,93,0.06,,---,0.45,0.00,VWS V14.01,2013-06-23 01:24:00,
2013-06-22 20:29:00,72.1,70.0,29.84,ENE,61,0.0,8.0,93,0.06,,---,0.45,0.00,VWS V14.01,2013-06-23 01:29:00,
2013-06-22 20:34:00,72.1,70.0,29.83,NE,40,0.0,8.0,93,0.06,,---,0.45,0.00,VWS V14.01,2013-06-23 01:34:00,
2013-06-22 20:39:00,72.0,69.9,29.84,NE,41,1.0,8.0,93,0.06,,---,0.45,0.00,VWS V14.01,2013-06-23 01:39:00,
2013-06-22 20:44:00,71.8,69.7,29.83,SE,126,2.0,8.0,93,0.06,,---,0.45,0.00,VWS V14.01,2013-06-23 01:44:00,
2013-06-22 20:49:00,71.5,69.4,29.84,ESE,104,2.0,8.0,93,0.06,,---,0.45,0.00,VWS V14.01,2013-06-23 01:49:00,
2013-06-22 20:54:00,70.9,68.8,29.89,SSW,202,6.0,8.0,93,0.06,,---,0.45,0.00,VWS V14.01,2013-06-23 01:54:00,
2013-06-22 20:59:00,70.5,67.4,29.91,SW,232,3.0,7.0,90,0.06,,---,0.50,0.00,VWS V14.01,2013-06-23 01:59:00,
2013-06-22 21:00:00,70.6,67.5,29.91,SSE,166,7.0,9.0,90,0.11,,---,0.50,0.00,VWS V14.01,2013-06-23 02:00:00,
2013-06-22 21:04:00,69.9,66.5,29.90,WSW,238,0.0,7.0,89,0.11,,---,0.55,0.00,VWS V14.01,2013-06-23 02:04:00,
2013-06-22 21:09:00,69.2,65.8,29.91,SSW,209,0.0,7.0,89,0.12,,---,0.56,0.00,VWS V14.01,2013-06-23 02:09:00,
2013-06-22 21:14:00,68.6,65.6,29.92,SSW,208,4.0,7.0,90,0.13,,---,0.57,0.00,VWS V14.01,2013-06-23 02:14:00,
2013-06-22 21:19:00,68.0,65.0,29.92,SSW,210,2.0,7.0,90,0.13,,---,0.57,0.00,VWS V14.01,2013-06-23 02:19:00,
2013-06-22 21:24:00,67.7,65.0,29.92,SSW,205,1.0,7.0,91,0.15,,---,0.59,0.00,VWS V14.01,2013-06-23 02:24:00,
2013-06-22 21:29:00,67.7,65.0,29.93,SW,226,2.0,7.0,91,0.16,,---,0.60,0.00,VWS V14.01,2013-06-23 02:29:00,
2013-06-22 21:34:00,67.4,64.7,29.92,SSW,213,2.0,7.0,91,0.17,,---,0.61,0.00,VWS V14.01,2013-06-23 02:34:00,
2013-06-22 21:39:00,67.0,64.6,29.91,South,191,1.0,7.0,92,0.17,,---,0.61,0.00,VWS V14.01,2013-06-23 02:39:00,
2013-06-22 21:44:00,67.0,64.6,29.90,South,191,0.0,7.0,92,0.18,,---,0.62,0.00,VWS V14.01,2013-06-23 02:44:00,
2013-06-22 21:49:00,66.9,64.5,29.92,South,191,1.0,7.0,92,0.18,,---,0.62,0.00,VWS V14.01,2013-06-23 02:49:00,
2013-06-22 21:54:00,66.8,64.7,29.93,NE,49,2.0,7.0,93,0.18,,---,0.62,0.00,VWS V14.01,2013-06-23 02:54:00,
2013-06-22 21:59:00,66.7,64.6,29.94,ENE,69,2.0,2.0,93,0.12,,---,0.62,0.00,VWS V14.01,2013-06-23 02:59:00,
2013-06-22 22:00:00,66.7,64.6,29.93,East,98,1.0,7.0,93,0.18,,---,0.62,0.00,VWS V14.01,2013-06-23 03:00:00,
2013-06-22 22:04:00,66.6,64.5,29.94,ESE,102,0.0,2.0,93,0.12,,---,0.62,0.00,VWS V14.01,2013-06-23 03:04:00,
2013-06-22 22:09:00,66.6,64.8,29.95,ESE,118,2.0,3.0,94,0.12,,---,0.62,0.00,VWS V14.01,2013-06-23 03:09:00,
2013-06-22 22:14:00,66.6,64.8,29.94,ESE,105,2.0,3.0,94,0.12,,---,0.62,0.00,VWS V14.01,2013-06-23 03:14:00,
2013-06-22 22:19:00,66.5,64.7,29.94,ESE,105,1.0,3.0,94,0.13,,---,0.63,0.00,VWS V14.01,2013-06-23 03:19:00,
2013-06-22 22:24:00,66.5,64.7,29.94,ESE,105,0.0,3.0,94,0.13,,---,0.63,0.00,VWS V14.01,2013-06-23 03:24:00,
2013-06-22 22:29:00,66.5,64.7,29.93,ESE,105,1.0,3.0,94,0.13,,---,0.63,0.00,VWS V14.01,2013-06-23 03:29:00,
2013-06-22 22:34:00,66.5,65.0,29.93,ESE,105,0.0,3.0,95,0.13,,---,0.63,0.00,VWS V14.01,2013-06-23 03:34:00,
2013-06-22 22:39:00,66.4,64.9,29.93,ESE,105,0.0,3.0,95,0.13,,---,0.63,0.00,VWS V14.01,2013-06-23 03:39:00,
2013-06-22 22:44:00,66.5,65.0,29.95,SSW,200,3.0,4.0,95,0.14,,---,0.64,0.00,VWS V14.01,2013-06-23 03:44:00,
2013-06-22 22:49:00,66.5,65.0,29.97,WSW,250,3.0,4.0,95,0.15,,---,0.65,0.00,VWS V14.01,2013-06-23 03:49:00,
2013-06-22 22:54:00,66.5,65.0,29.96,North,360,1.0,4.0,95,0.25,,---,0.75,0.00,VWS V14.01,2013-06-23 03:54:00,
2013-06-22 22:59:00,66.4,65.2,29.97,South,189,2.0,3.0,96,0.20,,---,0.82,0.00,VWS V14.01,2013-06-23 03:59:00,
2013-06-22 23:00:00,66.5,65.3,29.97,South,189,2.0,4.0,96,0.32,,---,0.82,0.00,VWS V14.01,2013-06-23 04:00:00,
2013-06-22 23:01:00,66.4,65.2,29.97,SW,221,3.0,3.0,96,0.20,,---,0.82,0.00,VWS V14.01,2013-06-23 04:01:00,
2013-06-22 23:06:00,66.3,65.1,29.98,SSW,200,1.0,5.0,96,0.21,,---,0.83,0.00,VWS V14.01,2013-06-23 04:06:00,
2013-06-22 23:11:00,66.3,65.1,29.97,SSW,200,0.0,5.0,96,0.24,,---,0.86,0.00,VWS V14.01,2013-06-23 04:11:00,
2013-06-22 23:16:00,66.3,65.1,29.97,SW,230,2.0,5.0,96,0.25,,---,0.87,0.00,VWS V14.01,2013-06-23 04:16:00,
2013-06-22 23:21:00,66.2,65.0,29.96,SW,230,0.0,5.0,96,0.27,,---,0.89,0.00,VWS V14.01,2013-06-23 04:21:00,
2013-06-22 23:26:00,66.1,64.9,29.97,SW,230,0.0,5.0,96,0.28,,---,0.90,0.00,VWS V14.01,2013-06-23 04:26:00,
2013-06-22 23:31:00,65.9,64.7,29.96,SW,230,0.0,5.0,96,0.29,,---,0.91,0.00,VWS V14.01,2013-06-23 04:31:00,
2013-06-22 23:36:00,65.9,64.7,29.95,SW,230,0.0,5.0,96,0.29,,---,0.91,0.00,VWS V14.01,2013-06-23 04:36:00,
2013-06-22 23:41:00,65.8,64.6,29.94,SW,230,0.0,5.0,96,0.30,,---,0.92,0.00,VWS V14.01,2013-06-23 04:41:00,
2013-06-22 23:46:00,65.8,64.6,29.93,SW,230,2.0,5.0,96,0.30,,---,0.92,0.00,VWS V14.01,2013-06-23 04:46:00,
2013-06-22 23:51:00,65.8,64.6,29.93,SW,230,0.0,5.0,96,0.31,,---,0.93,0.00,VWS V14.01,2013-06-23 04:51:00,
2013-06-22 23:56:00,65.7,64.5,29.93,SW,230,0.0,5.0,96,0.31,,---,0.93,0.00,VWS V14.01,2013-06-23 04:56:00,